Airfield :
LOGIN :

Register | Disclaimer

   EN    FR    IT 

 










Legend :    VFR   Marginal VFR   IFR   Intensive IFR   Very Intensive IFR
Visi :
Ceiling :
>= 8 km
>= 3000ft
5 to 8 km
1000 to 3000 ft
1500m to 5 km
500 to 1000 ft
800 to 1500m
200 to 500 ft
< 800m
< 200 ft
Symbols :   Thunderstorms  Fog  Heavy snow  Heavy precipitations  Wind > 20 kt
SIGMETs :     Misc.  Thunderstorms  Icing  Turbulence  Mountain Waves  Volcanic Ashes






- Airport Elevation : 288 ft
- IATA code : BZZ


EGVN - RAF Brize Norton

CURRENT METAR :
  • 010550Z 23003KT 9999 BKN042 01/M01 Q1026 NOSIG RMK BLU BLU

EXPIRED METARs :
  • 010520Z 23002KT 9999 BKN042 00/M02 Q1026 NOSIG RMK BLU BLU
  • 010450Z 30001KT 9999 SCT043 M00/M02 Q1026 NOSIG RMK BLU BLU
  • 010419Z 00000KT 9999 FEW042 M00/M02 Q1026 NOSIG RKM BLU BLU
  • 010350Z 33002KT CAVOK M00/M02 Q1026 NOSIG RMK BLU BLU
  • 010250Z AUTO 33004KT 9999 NCD M00/M02 Q1027

TAF TAF EGVN
Valid from the 01 at 06:00 until the 02 at 06:00 UTC


010417Z 0106/0206 33006KT 9999 SCT040
TEMPO 0202/0206 SCT012



MET'MAP, your aeronautical weather chart ! - Copyright ORBIFLY December 2007 - Disclaimer

ORBIFLY MET'MAP TEAM :

Programming & Development : Alexandra Zaïnal
Concept & original design : Baudouin d'Aumeries
Assistance for programming : Marc-Olivier Méhu
Technical & hardware support : Manuel Goepfert

Contact : metmap@orbifly.com




SOURCES & CREDITS :

   NOAA